Time;durP1;ratioP1;P1;durP2;ratioP2;P2;SDS_P1;SDS_P2;PMS_P1;PMS_P2;Temp;Humidity;BMP_temperature;BMP_pressure;BME280_temperature;BME280_humidity;BME280_pressure;Samples;Min_cycle;Max_cycle;Signal;HPM_P1;HPM_P2
2021/12/06 00:02:02;;;;;;;2.90;2.50;;;19.90;48.60;;;;;;2261909;63;20643;-67
2021/12/06 00:04:32;;;;;;;2.92;2.35;;;19.90;48.50;;;;;;2261923;63;20160;-66
2021/12/06 00:07:05;;;;;;;3.55;3.20;;;19.90;48.50;;;;;;2261959;63;20248;-67
2021/12/06 00:09:31;;;;;;;3.65;3.03;;;19.90;48.50;;;;;;2261850;63;20193;-67
2021/12/06 00:12:01;;;;;;;3.50;2.63;;;19.90;48.50;;;;;;2261889;63;20236;-67
2021/12/06 00:14:30;;;;;;;3.47;2.60;;;19.80;48.40;;;;;;2261887;63;20619;-67
2021/12/06 00:17:01;;;;;;;3.10;2.53;;;19.80;48.40;;;;;;2261838;63;20227;-67
2021/12/06 00:19:27;;;;;;;3.50;2.90;;;19.80;48.40;;;;;;2263133;63;20190;-67
2021/12/06 00:21:54;;;;;;;3.20;2.63;;;19.80;48.40;;;;;;2263165;63;20193;-67
2021/12/06 00:24:22;;;;;;;3.97;2.65;;;19.80;48.40;;;;;;2263251;63;20160;-68
2021/12/06 00:26:48;;;;;;;2.80;2.53;;;19.80;48.40;;;;;;2263173;63;20168;-67
2021/12/06 00:29:14;;;;;;;3.10;2.67;;;19.80;48.40;;;;;;2263202;63;20345;-67
2021/12/06 00:31:40;;;;;;;3.97;2.90;;;19.80;48.40;;;;;;2263131;63;20164;-67
2021/12/06 00:34:12;;;;;;;3.45;2.45;;;19.80;48.40;;;;;;2263048;63;20192;-67
2021/12/06 00:36:40;;;;;;;3.70;2.95;;;19.70;49.00;;;;;;2263123;63;20176;-68
2021/12/06 00:39:12;;;;;;;4.63;2.75;;;19.70;48.40;;;;;;2263127;63;20368;-67
2021/12/06 00:41:40;;;;;;;4.50;3.50;;;19.70;48.40;;;;;;2262977;63;20722;-68
2021/12/06 00:44:07;;;;;;;3.97;3.00;;;19.70;48.40;;;;;;2263055;63;20447;-67
2021/12/06 00:46:40;;;;;;;3.95;2.90;;;19.70;48.40;;;;;;2263066;63;20305;-67
2021/12/06 00:49:07;;;;;;;4.15;3.25;;;19.70;48.40;;;;;;2263021;63;20309;-67
2021/12/06 00:51:33;;;;;;;3.58;2.97;;;19.70;48.40;;;;;;2263075;63;20258;-67
2021/12/06 00:53:59;;;;;;;4.63;3.13;;;19.70;48.30;;;;;;2263034;63;20286;-66
2021/12/06 00:56:25;;;;;;;4.18;3.17;;;19.60;48.30;;;;;;2263010;63;20163;-66
2021/12/06 00:58:51;;;;;;;3.95;3.10;;;19.60;48.30;;;;;;2263029;63;20173;-68
2021/12/06 01:01:17;;;;;;;4.68;3.30;;;19.60;48.20;;;;;;2262990;63;20422;-66
2021/12/06 01:03:44;;;;;;;3.67;3.05;;;19.60;48.20;;;;;;2262870;63;20147;-66
2021/12/06 01:06:12;;;;;;;4.30;3.45;;;19.60;48.20;;;;;;2262948;63;20192;-67
2021/12/06 01:08:38;;;;;;;4.03;3.10;;;19.60;48.20;;;;;;2262967;63;20787;-66
2021/12/06 01:11:06;;;;;;;3.85;3.20;;;19.60;48.20;;;;;;2262851;63;20254;-66
2021/12/06 01:13:32;;;;;;;4.50;3.50;;;19.60;48.20;;;;;;2262875;63;20176;-66
2021/12/06 01:15:58;;;;;;;5.40;2.92;;;19.60;48.20;;;;;;2262873;63;20251;-66
2021/12/06 01:18:24;;;;;;;4.45;3.53;;;19.60;48.20;;;;;;2262831;63;20176;-66
2021/12/06 01:20:59;;;;;;;3.85;3.08;;;19.60;48.20;;;;;;2262861;63;20269;-66
2021/12/06 01:23:30;;;;;;;4.50;3.60;;;19.60;48.10;;;;;;2262884;63;20184;-66
2021/12/06 01:31:55;;;;;;;3.83;3.25;;;19.60;48.40;;;;;;2262731;63;20195;-67
2021/12/06 01:39:38;;;;;;;4.70;3.28;;;19.50;48.10;;;;;;2262731;63;20646;-68
2021/12/06 01:42:06;;;;;;;4.57;3.60;;;19.50;48.10;;;;;;2262571;63;20598;-67
2021/12/06 01:44:35;;;;;;;3.92;3.17;;;19.50;48.00;;;;;;2262743;63;20603;-66
2021/12/06 01:47:27;;;;;;;4.00;3.30;;;19.40;48.00;;;;;;2262698;63;20160;-67
2021/12/06 01:50:12;;;;;;;4.25;3.50;;;19.50;48.00;;;;;;2222139;64;20212;-66
2021/12/06 01:52:59;;;;;;;3.88;3.20;;;19.40;48.00;;;;;;2222203;64;20183;-67
2021/12/06 01:55:29;;;;;;;5.15;3.67;;;19.40;48.00;;;;;;2221864;64;20187;-64
2021/12/06 01:57:56;;;;;;;5.25;3.80;;;19.40;48.00;;;;;;2222121;64;20187;-66
2021/12/06 02:00:34;;;;;;;4.28;3.38;;;19.40;48.00;;;;;;2222117;64;20205;-67
2021/12/06 02:03:00;;;;;;;5.35;3.85;;;19.40;47.90;;;;;;2221957;64;20199;-67
2021/12/06 02:05:26;;;;;;;4.93;3.58;;;19.40;48.00;;;;;;2222067;64;20189;-67
2021/12/06 02:07:52;;;;;;;4.28;3.53;;;19.50;48.00;;;;;;2222031;64;20604;-67
2021/12/06 02:10:19;;;;;;;4.38;3.80;;;19.40;47.90;;;;;;2221952;64;20318;-66
2021/12/06 02:12:47;;;;;;;4.88;3.70;;;19.40;47.90;;;;;;2222031;64;20194;-66
2021/12/06 02:15:42;;;;;;;4.90;4.07;;;19.40;47.80;;;;;;2222097;64;20309;-67
2021/12/06 02:18:09;;;;;;;4.20;3.80;;;19.40;47.80;;;;;;2221836;64;20194;-66
2021/12/06 02:20:43;;;;;;;3.83;3.30;;;19.40;47.90;;;;;;2221949;64;20859;-68
2021/12/06 02:23:10;;;;;;;3.80;3.45;;;19.40;47.90;;;;;;2221986;64;20748;-68
2021/12/06 02:25:36;;;;;;;4.88;4.10;;;19.40;47.90;;;;;;2221964;64;20195;-66
2021/12/06 02:28:04;;;;;;;4.88;3.70;;;19.40;47.80;;;;;;2261616;63;20308;-67
2021/12/06 02:30:30;;;;;;;4.25;3.40;;;19.40;47.80;;;;;;2262512;63;20610;-66
2021/12/06 02:32:56;;;;;;;5.82;4.53;;;19.40;48.40;;;;;;2262412;63;20657;-67
2021/12/06 02:35:23;;;;;;;4.00;3.38;;;19.40;47.80;;;;;;2262485;63;20189;-66
2021/12/06 02:37:50;;;;;;;4.70;3.85;;;19.40;47.80;;;;;;2262394;63;20188;-67
2021/12/06 02:40:26;;;;;;;5.18;4.10;;;19.40;47.70;;;;;;2262382;63;20359;-66
2021/12/06 02:42:53;;;;;;;4.43;3.65;;;19.40;47.70;;;;;;2261848;63;20184;-67
2021/12/06 02:45:24;;;;;;;5.75;4.32;;;19.40;47.70;;;;;;2262396;63;20614;-66
2021/12/06 02:47:53;;;;;;;4.93;4.38;;;19.30;47.60;;;;;;2262385;63;20402;-66
2021/12/06 02:50:27;;;;;;;5.95;4.55;;;19.30;47.60;;;;;;2262383;63;20254;-67
2021/12/06 02:52:55;;;;;;;5.50;4.32;;;19.30;47.60;;;;;;2262351;63;20184;-66
2021/12/06 02:57:57;;;;;;;5.43;4.28;;;19.30;47.60;;;;;;2262354;63;20662;-66
2021/12/06 03:00:24;;;;;;;6.82;4.30;;;19.30;47.60;;;;;;2262298;63;20382;-67
2021/12/06 03:02:50;;;;;;;5.88;4.35;;;19.30;47.60;;;;;;2262182;63;20672;-67
2021/12/06 03:05:16;;;;;;;4.65;4.05;;;19.30;47.60;;;;;;2262239;63;20344;-67
2021/12/06 03:07:46;;;;;;;5.85;4.13;;;19.30;47.60;;;;;;2262260;63;20182;-66
2021/12/06 03:10:15;;;;;;;6.53;4.05;;;19.30;47.60;;;;;;2262161;63;20329;-65
2021/12/06 03:12:40;;;;;;;6.35;4.50;;;19.30;47.60;;;;;;2262248;63;20175;-66
2021/12/06 03:15:07;;;;;;;4.63;3.70;;;19.30;47.50;;;;;;2262259;63;20337;-66
2021/12/06 03:17:33;;;;;;;6.68;4.70;;;19.30;47.50;;;;;;2262147;63;20277;-66
2021/12/06 03:20:00;;;;;;;6.00;4.18;;;19.30;47.60;;;;;;2262211;63;20288;-67
2021/12/06 03:22:28;;;;;;;6.60;4.60;;;19.30;47.50;;;;;;2262139;63;20684;-67
2021/12/06 03:24:54;;;;;;;6.30;4.15;;;19.30;47.50;;;;;;2262215;63;20176;-66
2021/12/06 03:27:20;;;;;;;4.80;4.00;;;19.30;48.10;;;;;;2262168;63;20409;-67
2021/12/06 03:29:48;;;;;;;5.85;4.53;;;19.30;47.50;;;;;;2262122;63;20180;-66
2021/12/06 03:32:14;;;;;;;6.93;4.63;;;19.20;47.40;;;;;;2262099;63;20207;-67
2021/12/06 03:34:40;;;;;;;6.60;4.72;;;19.20;47.40;;;;;;2262056;63;20159;-67
2021/12/06 03:37:08;;;;;;;5.63;4.40;;;19.30;47.50;;;;;;2262149;63;20185;-67
2021/12/06 03:39:40;;;;;;;6.10;4.47;;;19.20;47.40;;;;;;2262042;63;20183;-67
2021/12/06 03:42:08;;;;;;;6.00;4.38;;;19.20;47.40;;;;;;2261900;63;20203;-66
2021/12/06 03:44:34;;;;;;;6.13;4.65;;;19.20;47.40;;;;;;2262054;63;20180;-67
2021/12/06 03:47:05;;;;;;;6.05;4.22;;;19.20;47.40;;;;;;2262030;63;20283;-66
2021/12/06 03:49:31;;;;;;;6.00;4.55;;;19.20;47.40;;;;;;2262012;63;20723;-67
2021/12/06 03:51:57;;;;;;;5.30;4.45;;;19.20;47.40;;;;;;2261937;63;20237;-67
2021/12/06 03:54:26;;;;;;;5.72;4.38;;;19.20;47.40;;;;;;2261931;63;20260;-66
2021/12/06 03:56:53;;;;;;;5.10;4.03;;;19.20;47.40;;;;;;2262011;63;20167;-67
2021/12/06 03:59:20;;;;;;;5.50;4.68;;;19.20;47.80;;;;;;2262003;63;20260;-66
2021/12/06 04:01:47;;;;;;;6.20;4.63;;;19.20;47.40;;;;;;2261922;63;20211;-67
2021/12/06 04:04:13;;;;;;;5.45;4.22;;;19.10;47.30;;;;;;2261844;63;20710;-67
2021/12/06 04:06:40;;;;;;;5.72;4.50;;;19.20;47.40;;;;;;2261965;63;20342;-67
2021/12/06 04:09:10;;;;;;;5.70;4.53;;;19.10;47.30;;;;;;2261925;63;20219;-67
2021/12/06 04:11:37;;;;;;;5.20;4.10;;;19.10;47.30;;;;;;2261967;63;20243;-67
2021/12/06 04:14:04;;;;;;;6.97;5.00;;;19.10;47.90;;;;;;2261897;63;20280;-67
2021/12/06 04:16:31;;;;;;;5.78;4.45;;;19.10;47.30;;;;;;2261893;63;20212;-67
2021/12/06 04:18:57;;;;;;;5.63;4.40;;;19.10;47.30;;;;;;2261853;63;20976;-67
2021/12/06 04:21:24;;;;;;;5.68;4.85;;;19.10;47.30;;;;;;2261845;63;20595;-66
2021/12/06 04:23:51;;;;;;;6.07;4.65;;;19.10;47.30;;;;;;2261851;63;20216;-66
2021/12/06 04:26:18;;;;;;;6.32;4.38;;;19.10;47.30;;;;;;2261904;63;20228;-65
2021/12/06 04:28:48;;;;;;;6.32;4.78;;;19.10;47.30;;;;;;2261860;63;20206;-67
2021/12/06 04:31:16;;;;;;;6.40;4.78;;;19.10;47.30;;;;;;2261891;63;20178;-67
2021/12/06 04:33:42;;;;;;;6.35;4.50;;;19.10;47.30;;;;;;2261778;63;20168;-67
2021/12/06 04:36:08;;;;;;;6.15;4.80;;;19.10;47.30;;;;;;2261816;63;20236;-68
2021/12/06 04:38:34;;;;;;;6.72;4.65;;;19.10;47.20;;;;;;2261829;63;20176;-68
2021/12/06 04:41:01;;;;;;;5.47;4.57;;;19.10;47.30;;;;;;2254403;63;20172;-67
2021/12/06 04:43:27;;;;;;;6.43;4.85;;;19.00;47.20;;;;;;2261582;63;20225;-66
2021/12/06 04:45:53;;;;;;;6.85;5.32;;;19.10;47.20;;;;;;2261748;63;20167;-66
2021/12/06 04:48:19;;;;;;;5.03;4.18;;;19.10;47.20;;;;;;2261622;63;20282;-67
2021/12/06 04:50:45;;;;;;;5.22;4.65;;;19.10;47.30;;;;;;2261725;63;20152;-67
2021/12/06 04:53:15;;;;;;;7.05;4.93;;;19.10;47.30;;;;;;2261722;63;20160;-66
2021/12/06 04:55:52;;;;;;;6.88;4.70;;;19.00;47.20;;;;;;2261688;63;20184;-67
2021/12/06 04:58:23;;;;;;;5.60;4.53;;;19.00;47.20;;;;;;2261602;63;20224;-66
2021/12/06 05:00:59;;;;;;;6.72;4.75;;;19.10;47.20;;;;;;2261644;63;20277;-68
2021/12/06 05:03:26;;;;;;;6.05;4.57;;;19.00;47.20;;;;;;2261514;63;20204;-67
2021/12/06 05:05:57;;;;;;;6.45;4.70;;;19.00;47.20;;;;;;2262588;63;20168;-68
2021/12/06 05:08:29;;;;;;;5.72;4.78;;;19.00;47.20;;;;;;2262952;63;20197;-67
2021/12/06 05:10:57;;;;;;;5.75;4.70;;;19.00;47.10;;;;;;2262876;63;20175;-67
2021/12/06 05:13:24;;;;;;;5.57;4.55;;;19.00;47.10;;;;;;2262871;63;20197;-67
2021/12/06 05:15:51;;;;;;;6.50;5.00;;;19.00;47.20;;;;;;2262932;63;20183;-68
2021/12/06 05:18:16;;;;;;;5.57;4.60;;;19.00;47.20;;;;;;2262884;63;20198;-68
2021/12/06 05:20:43;;;;;;;6.30;4.90;;;19.00;47.20;;;;;;2262867;63;20199;-67
2021/12/06 05:23:10;;;;;;;5.78;4.80;;;19.00;47.10;;;;;;2262830;63;20185;-66
2021/12/06 05:25:36;;;;;;;7.38;5.70;;;19.00;47.10;;;;;;2262831;63;20172;-66
2021/12/06 05:28:04;;;;;;;5.00;4.47;;;19.00;47.10;;;;;;2262870;63;20772;-65
2021/12/06 05:30:31;;;;;;;4.82;4.32;;;19.00;47.10;;;;;;2262771;63;20213;-66
2021/12/06 05:32:59;;;;;;;5.78;4.93;;;19.00;47.10;;;;;;2262796;63;20215;-66
2021/12/06 05:35:26;;;;;;;7.80;5.28;;;19.00;47.10;;;;;;2262810;63;20208;-67
2021/12/06 05:37:54;;;;;;;7.38;5.50;;;19.00;47.10;;;;;;2262742;63;20187;-66
2021/12/06 05:40:26;;;;;;;7.28;5.63;;;19.10;47.00;;;;;;2262650;63;20324;-66
2021/12/06 05:42:54;;;;;;;7.40;5.10;;;19.10;47.00;;;;;;2262490;63;20313;-66
2021/12/06 05:45:22;;;;;;;6.43;5.20;;;19.20;46.90;;;;;;2262728;63;20205;-67
2021/12/06 05:47:48;;;;;;;7.10;5.28;;;19.20;46.80;;;;;;2262737;63;20219;-66
2021/12/06 05:50:15;;;;;;;6.85;4.50;;;19.30;47.40;;;;;;2262599;63;20172;-66
2021/12/06 05:52:42;;;;;;;5.20;4.68;;;19.40;46.70;;;;;;2262702;63;20211;-66
2021/12/06 05:55:10;;;;;;;6.88;5.10;;;19.50;46.70;;;;;;2262654;63;20642;-66
2021/12/06 05:57:36;;;;;;;5.70;4.68;;;19.70;46.60;;;;;;2262677;63;20277;-66
2021/12/06 06:00:09;;;;;;;5.55;4.28;;;19.80;46.40;;;;;;2262653;63;20328;-66
2021/12/06 06:02:35;;;;;;;4.88;3.42;;;19.90;46.20;;;;;;2262605;63;20168;-66
2021/12/06 06:05:01;;;;;;;5.13;4.05;;;20.10;46.10;;;;;;2262591;63;20181;-66
2021/12/06 06:07:27;;;;;;;5.90;4.28;;;20.20;46.10;;;;;;2262615;63;20842;-66
2021/12/06 06:09:53;;;;;;;4.85;4.30;;;20.20;45.90;;;;;;2262518;63;20160;-66
2021/12/06 06:12:19;;;;;;;4.85;4.25;;;20.30;46.00;;;;;;2262553;63;20168;-66
2021/12/06 06:14:44;;;;;;;7.03;4.93;;;20.40;45.80;;;;;;2262569;63;20205;-66
2021/12/06 06:17:13;;;;;;;5.72;4.45;;;20.30;45.70;;;;;;2262487;63;20642;-67
2021/12/06 06:19:44;;;;;;;7.25;5.60;;;20.30;45.70;;;;;;2262473;63;20156;-66
2021/12/06 06:22:11;;;;;;;6.78;4.60;;;20.30;45.60;;;;;;2262469;63;20269;-66
2021/12/06 06:24:38;;;;;;;5.68;4.25;;;20.30;45.60;;;;;;2262533;63;20215;-66
2021/12/06 06:27:05;;;;;;;7.38;4.68;;;20.30;45.60;;;;;;2262501;63;20164;-66
2021/12/06 06:29:31;;;;;;;7.20;4.65;;;20.40;45.60;;;;;;2262504;63;20180;-66
2021/12/06 06:31:58;;;;;;;6.05;4.75;;;20.30;45.50;;;;;;2262433;63;20236;-66
2021/12/06 06:34:25;;;;;;;6.30;4.78;;;20.40;45.60;;;;;;2262417;63;20261;-66
2021/12/06 06:36:53;;;;;;;6.47;5.00;;;20.40;46.10;;;;;;2262399;63;20538;-66
2021/12/06 06:39:19;;;;;;;5.43;3.88;;;20.30;46.10;;;;;;2262351;63;20176;-66
2021/12/06 06:41:50;;;;;;;6.05;4.05;;;20.40;45.50;;;;;;2262400;63;20180;-66
2021/12/06 06:44:20;;;;;;;6.65;4.68;;;20.40;45.30;;;;;;2262311;63;20445;-67
2021/12/06 06:46:47;;;;;;;5.88;4.55;;;20.50;45.40;;;;;;2262415;63;20236;-66
2021/12/06 06:49:13;;;;;;;6.68;4.65;;;20.50;45.40;;;;;;2262378;63;20171;-66
2021/12/06 06:51:40;;;;;;;5.88;4.68;;;20.50;45.30;;;;;;2262389;63;20181;-66
2021/12/06 06:54:06;;;;;;;4.95;4.45;;;20.50;45.30;;;;;;2262326;63;20164;-66
2021/12/06 06:56:33;;;;;;;5.57;4.32;;;20.50;45.90;;;;;;2262362;63;20172;-66
2021/12/06 06:58:59;;;;;;;6.35;4.78;;;20.50;45.30;;;;;;2262292;63;20190;-66
2021/12/06 07:01:25;;;;;;;5.50;4.60;;;20.50;45.90;;;;;;2262293;63;20206;-67
2021/12/06 07:03:53;;;;;;;6.55;4.25;;;20.50;45.20;;;;;;2262114;63;20650;-66
2021/12/06 07:06:22;;;;;;;5.60;4.63;;;20.50;45.20;;;;;;2262260;63;20168;-66
2021/12/06 07:08:48;;;;;;;5.95;4.57;;;20.50;45.10;;;;;;2262262;63;20882;-66
2021/12/06 07:11:14;;;;;;;6.53;5.05;;;20.50;45.10;;;;;;2262149;63;20156;-66
2021/12/06 07:13:40;;;;;;;5.88;4.50;;;20.60;45.20;;;;;;2262140;63;20703;-66
2021/12/06 07:16:07;;;;;;;4.55;4.00;;;20.50;45.10;;;;;;2262230;63;20200;-66
2021/12/06 07:18:33;;;;;;;5.50;4.72;;;20.60;45.20;;;;;;2262163;63;20211;-66
2021/12/06 07:21:00;;;;;;;6.55;5.03;;;20.60;45.20;;;;;;2262174;63;20211;-66
2021/12/06 07:23:26;;;;;;;5.95;4.55;;;20.60;45.10;;;;;;2262104;63;20191;-67
2021/12/06 07:25:52;;;;;;;5.10;4.50;;;20.60;45.10;;;;;;2262165;63;20352;-66
2021/12/06 07:28:18;;;;;;;5.85;4.75;;;20.60;45.10;;;;;;2261863;63;20219;-66
2021/12/06 07:30:47;;;;;;;5.18;4.63;;;20.60;45.00;;;;;;2262130;63;20212;-66
2021/12/06 07:33:13;;;;;;;6.68;5.38;;;20.60;45.00;;;;;;2262139;63;20176;-66
2021/12/06 07:35:41;;;;;;;6.35;4.95;;;20.60;45.00;;;;;;2262059;63;20313;-67
2021/12/06 07:38:07;;;;;;;6.15;4.88;;;20.60;45.00;;;;;;2262129;63;20261;-66
2021/12/06 07:40:34;;;;;;;4.75;4.07;;;20.60;45.00;;;;;;2262027;63;20190;-67
2021/12/06 07:43:00;;;;;;;5.03;4.15;;;20.70;45.00;;;;;;2263549;63;20282;-67
2021/12/06 07:45:26;;;;;;;6.70;5.47;;;20.60;45.00;;;;;;2262092;63;20205;-67
2021/12/06 07:47:52;;;;;;;6.82;5.10;;;20.70;45.00;;;;;;2262030;63;20168;-68
2021/12/06 07:50:20;;;;;;;7.93;5.60;;;20.70;45.00;;;;;;2262035;63;20358;-68
2021/12/06 07:52:51;;;;;;;7.00;4.75;;;20.60;45.00;;;;;;2262077;63;20160;-67
2021/12/06 07:55:19;;;;;;;7.55;5.43;;;20.60;45.10;;;;;;2262081;63;20285;-66
2021/12/06 07:57:45;;;;;;;5.30;4.50;;;20.60;45.10;;;;;;2261998;63;20568;-67
2021/12/06 08:00:18;;;;;;;6.57;4.85;;;20.60;45.20;;;;;;2261987;63;20164;-66
2021/12/06 08:02:44;;;;;;;8.77;5.13;;;20.60;45.20;;;;;;2254806;63;20826;-66
2021/12/06 08:05:30;;;;;;;8.43;5.43;;;20.60;45.30;;;;;;2261883;63;20164;-68
2021/12/06 08:08:05;;;;;;;;;;;20.60;45.30;;;;;;2262419;63;20352;-67
2021/12/06 08:10:33;;;;;;;8.52;4.97;;;20.60;45.60;;;;;;2261860;63;20057;-67
2021/12/06 08:12:59;;;;;;;7.50;4.70;;;20.60;45.50;;;;;;2261879;63;20603;-67
2021/12/06 08:15:25;;;;;;;7.68;5.40;;;20.60;45.50;;;;;;2261857;63;20160;-67
2021/12/06 08:17:51;;;;;;;8.38;5.40;;;20.60;45.50;;;;;;2261924;63;20180;-68
2021/12/06 08:20:17;;;;;;;7.57;5.75;;;20.50;45.50;;;;;;2261874;63;20322;-67
2021/12/06 08:22:43;;;;;;;13.07;6.65;;;20.50;45.60;;;;;;2261844;63;20616;-68
2021/12/06 08:25:15;;;;;;;10.55;5.90;;;20.50;45.60;;;;;;2261911;63;20333;-68
2021/12/06 08:27:42;;;;;;;10.32;6.38;;;20.50;45.70;;;;;;2261810;63;20250;-66
2021/12/06 08:30:10;;;;;;;13.02;5.97;;;20.40;45.70;;;;;;2261886;63;20192;-67
2021/12/06 08:32:36;;;;;;;9.98;5.75;;;20.40;45.80;;;;;;2261866;63;20223;-68
2021/12/06 08:35:04;;;;;;;11.38;6.07;;;20.40;45.90;;;;;;2261665;63;20694;-67
2021/12/06 08:37:32;;;;;;;9.15;5.97;;;20.30;45.90;;;;;;2261765;63;20808;-66
2021/12/06 08:39:58;;;;;;;8.98;5.97;;;20.20;46.00;;;;;;2262173;63;20804;-67
2021/12/06 08:42:24;;;;;;;9.23;5.97;;;20.20;46.00;;;;;;2262945;63;20159;-67
2021/12/06 08:44:50;;;;;;;10.60;6.20;;;20.20;46.10;;;;;;2263010;63;20397;-67
2021/12/06 08:47:17;;;;;;;10.43;6.00;;;20.10;46.10;;;;;;2263130;63;20238;-66
2021/12/06 08:49:44;;;;;;;8.93;6.13;;;20.10;46.10;;;;;;2261451;63;20336;-69
2021/12/06 08:52:10;;;;;;;9.93;7.07;;;20.10;46.20;;;;;;2262090;63;20206;-67
2021/12/06 08:54:36;;;;;;;8.95;6.30;;;20.00;46.20;;;;;;2262418;63;20211;-69
2021/12/06 08:57:04;;;;;;;9.90;6.22;;;20.00;46.30;;;;;;2262634;63;20164;-68
2021/12/06 08:59:30;;;;;;;9.30;5.70;;;20.00;46.30;;;;;;2262561;63;20163;-67
2021/12/06 09:01:57;;;;;;;9.07;6.20;;;20.00;46.30;;;;;;2262591;63;20193;-67
2021/12/06 09:04:28;;;;;;;10.43;6.43;;;19.90;46.30;;;;;;2262443;63;20205;-68
2021/12/06 09:06:55;;;;;;;8.13;5.95;;;19.90;46.40;;;;;;2262399;63;20167;-66
2021/12/06 09:09:21;;;;;;;9.45;6.35;;;19.90;46.40;;;;;;2262323;63;20320;-67
2021/12/06 09:11:49;;;;;;;9.15;6.10;;;19.90;46.40;;;;;;2261957;63;20645;-67
2021/12/06 09:14:16;;;;;;;11.23;6.15;;;19.90;46.50;;;;;;2262222;63;20175;-68
2021/12/06 09:16:43;;;;;;;7.60;6.10;;;19.80;46.50;;;;;;2262895;63;20164;-67
2021/12/06 09:19:12;;;;;;;11.02;6.45;;;19.80;46.50;;;;;;2262806;63;20717;-67
2021/12/06 09:21:38;;;;;;;8.60;5.80;;;19.80;46.60;;;;;;2262778;63;20223;-68
2021/12/06 09:24:07;;;;;;;10.60;6.05;;;19.70;46.60;;;;;;2262883;63;20885;-68
2021/12/06 09:26:34;;;;;;;9.88;5.50;;;19.70;46.70;;;;;;2262833;63;20168;-66
2021/12/06 09:29:00;;;;;;;9.32;6.65;;;19.70;46.70;;;;;;2262845;63;20241;-67
2021/12/06 09:31:27;;;;;;;10.95;5.55;;;19.70;46.70;;;;;;2262878;63;20192;-67
2021/12/06 09:33:53;;;;;;;9.23;6.03;;;19.70;46.80;;;;;;2262734;63;20190;-69
2021/12/06 09:36:21;;;;;;;9.98;6.15;;;19.60;46.70;;;;;;2262846;63;20172;-65
2021/12/06 09:38:48;;;;;;;10.57;6.28;;;19.60;46.70;;;;;;2262791;63;20706;-66
2021/12/06 09:41:25;;;;;;;9.50;5.88;;;19.60;46.80;;;;;;2261574;63;20188;-67
2021/12/06 09:43:58;;;;;;;8.68;5.95;;;19.60;46.90;;;;;;2260569;63;20205;-65
2021/12/06 09:46:26;;;;;;;10.07;6.57;;;19.60;46.90;;;;;;2262421;63;20289;-67
2021/12/06 09:48:52;;;;;;;8.57;6.20;;;19.60;47.20;;;;;;2262662;63;20322;-66
2021/12/06 09:51:22;;;;;;;9.80;5.70;;;19.60;46.90;;;;;;2262408;63;20784;-66
2021/12/06 09:53:50;;;;;;;10.93;7.03;;;19.60;47.00;;;;;;2262711;63;20224;-66
2021/12/06 09:56:22;;;;;;;8.43;6.70;;;19.60;47.00;;;;;;2262693;63;20838;-66
2021/12/06 09:58:48;;;;;;;9.50;6.80;;;19.60;47.00;;;;;;2262661;63;20223;-66
2021/12/06 10:01:26;;;;;;;12.32;6.07;;;19.60;46.90;;;;;;2262634;63;20167;-66
2021/12/06 10:03:55;;;;;;;12.23;7.22;;;19.60;47.60;;;;;;2262554;63;20274;-66
2021/12/06 10:06:22;;;;;;;8.98;6.18;;;19.60;47.00;;;;;;2262536;63;20180;-66
2021/12/06 10:08:50;;;;;;;10.05;6.43;;;19.60;47.00;;;;;;2262601;63;20769;-66
2021/12/06 10:11:18;;;;;;;10.15;6.72;;;19.60;46.90;;;;;;2262226;63;20197;-66
2021/12/06 10:13:45;;;;;;;8.77;6.03;;;19.60;46.90;;;;;;2262488;63;20301;-66
2021/12/06 10:16:11;;;;;;;8.52;6.07;;;19.60;47.00;;;;;;2262525;63;20201;-66
2021/12/06 10:18:38;;;;;;;7.78;5.93;;;19.60;47.00;;;;;;2262561;63;20167;-66
2021/12/06 10:21:05;;;;;;;9.50;6.20;;;19.60;47.10;;;;;;2258894;63;20200;-66
2021/12/06 10:23:32;;;;;;;9.52;6.25;;;19.60;47.10;;;;;;2258875;63;20167;-66
2021/12/06 10:25:58;;;;;;;9.35;6.47;;;19.60;47.20;;;;;;2255197;63;20393;-66
2021/12/06 10:28:29;;;;;;;9.32;6.30;;;19.60;47.20;;;;;;2262539;63;20748;-68
2021/12/06 10:30:58;;;;;;;9.25;6.05;;;19.60;47.90;;;;;;2262495;63;20261;-66
2021/12/06 10:33:34;;;;;;;8.98;5.53;;;19.60;47.30;;;;;;2262486;63;20296;-66
2021/12/06 10:36:08;;;;;;;6.93;5.50;;;19.60;47.30;;;;;;2262436;63;20380;-67
2021/12/06 10:38:42;;;;;;;8.73;6.13;;;19.50;47.30;;;;;;2262441;63;20575;-66
2021/12/06 10:41:16;;;;;;;7.88;6.05;;;19.50;47.40;;;;;;2262396;63;20187;-66
2021/12/06 10:43:54;;;;;;;12.00;6.65;;;19.50;47.50;;;;;;2262303;63;20662;-66
2021/12/06 10:46:21;;;;;;;11.40;8.07;;;19.50;47.60;;;;;;2262430;63;20270;-67
2021/12/06 10:48:48;;;;;;;10.68;6.38;;;19.40;47.70;;;;;;2262436;63;20148;-66
2021/12/06 10:51:18;;;;;;;12.27;7.07;;;19.40;47.80;;;;;;2262361;63;20171;-66
2021/12/06 10:53:57;;;;;;;13.13;6.95;;;19.40;47.90;;;;;;2262437;63;20195;-67
2021/12/06 10:56:31;;;;;;;9.65;6.32;;;19.40;48.00;;;;;;2262280;63;20696;-67
2021/12/06 10:59:01;;;;;;;11.20;6.00;;;19.30;48.00;;;;;;2259873;63;20179;-66
2021/12/06 11:01:33;;;;;;;11.15;6.68;;;19.30;48.10;;;;;;2255007;63;20181;-66
2021/12/06 11:04:01;;;;;;;8.15;6.47;;;19.30;48.10;;;;;;2253902;63;20172;-67
2021/12/06 11:06:35;;;;;;;11.40;7.00;;;19.30;48.20;;;;;;2254304;63;20177;-66
2021/12/06 11:09:05;;;;;;;11.25;7.68;;;19.30;48.30;;;;;;2254327;63;20306;-66
2021/12/06 11:11:35;;;;;;;10.55;7.10;;;19.30;48.40;;;;;;2254181;63;20199;-66
2021/12/06 11:14:19;;;;;;;8.55;6.40;;;19.40;48.60;;;;;;2254228;63;20241;-66
2021/12/06 11:16:48;;;;;;;10.07;7.00;;;19.40;48.70;;;;;;2254243;63;20365;-66
2021/12/06 11:19:16;;;;;;;12.23;7.03;;;19.40;48.70;;;;;;2254257;63;20592;-67
2021/12/06 11:21:51;;;;;;;10.85;6.97;;;19.40;48.70;;;;;;2254205;63;20203;-66
2021/12/06 11:24:32;;;;;;;10.93;7.13;;;19.40;48.60;;;;;;2254169;63;20705;-66
2021/12/06 11:27:08;;;;;;;10.35;6.93;;;19.40;48.60;;;;;;2254220;63;20794;-67
2021/12/06 11:29:45;;;;;;;9.85;6.57;;;19.40;48.70;;;;;;2254173;63;20543;-66
2021/12/06 11:32:19;;;;;;;10.15;6.15;;;19.40;48.80;;;;;;2254173;63;20189;-66
2021/12/06 11:34:49;;;;;;;11.00;5.72;;;19.50;48.80;;;;;;2254139;63;20176;-66
2021/12/06 11:37:24;;;;;;;8.13;5.78;;;19.40;48.80;;;;;;2254158;63;20168;-66
2021/12/06 11:40:04;;;;;;;11.35;6.80;;;19.40;48.80;;;;;;2254092;63;20184;-67
2021/12/06 11:42:45;;;;;;;9.65;6.20;;;19.50;48.90;;;;;;2253967;63;20161;-66
2021/12/06 11:45:11;;;;;;;8.85;6.07;;;19.50;48.90;;;;;;2254073;63;20181;-67
2021/12/06 11:47:37;;;;;;;10.23;6.03;;;19.50;48.90;;;;;;2254103;63;20161;-66
2021/12/06 11:50:04;;;;;;;9.60;6.15;;;19.50;48.90;;;;;;2254009;63;20195;-66
2021/12/06 11:52:32;;;;;;;8.75;6.10;;;19.50;49.00;;;;;;2254056;63;20188;-67
2021/12/06 11:55:03;;;;;;;10.68;6.10;;;19.50;49.00;;;;;;2254024;63;20256;-66
2021/12/06 11:57:38;;;;;;;12.63;6.53;;;19.50;49.10;;;;;;2253995;63;20181;-66
2021/12/06 12:00:19;;;;;;;8.27;5.72;;;19.50;49.10;;;;;;2254032;63;20242;-67
2021/12/06 12:02:52;;;;;;;9.77;6.15;;;19.50;49.30;;;;;;2253968;63;20220;-66
2021/12/06 12:05:41;;;;;;;9.65;5.90;;;19.50;49.40;;;;;;2253899;63;20172;-66
2021/12/06 12:08:14;;;;;;;10.45;6.22;;;19.40;49.30;;;;;;2253705;63;20333;-66
2021/12/06 12:10:52;;;;;;;11.15;6.10;;;19.40;49.40;;;;;;2253827;63;20290;-66
2021/12/06 12:13:23;;;;;;;9.35;6.10;;;19.40;49.30;;;;;;2254004;63;20551;-67
2021/12/06 12:15:55;;;;;;;7.65;5.72;;;19.40;49.30;;;;;;2255217;63;20172;-66
2021/12/06 12:18:22;;;;;;;9.52;5.25;;;19.40;50.00;;;;;;2255166;63;20251;-67
2021/12/06 12:20:49;;;;;;;9.57;5.93;;;19.40;49.40;;;;;;2255204;63;20732;-65
2021/12/06 12:23:15;;;;;;;10.20;6.15;;;19.40;49.40;;;;;;2255193;63;20189;-67
2021/12/06 12:25:58;;;;;;;11.45;6.18;;;19.40;49.50;;;;;;2255167;63;20243;-66
2021/12/06 12:28:30;;;;;;;8.20;5.85;;;19.40;49.50;;;;;;2255158;63;20314;-66
2021/12/06 12:30:58;;;;;;;9.50;5.88;;;19.50;49.50;;;;;;2255119;63;20241;-67
2021/12/06 12:33:26;;;;;;;9.70;5.80;;;19.50;49.50;;;;;;2255073;63;20667;-68
2021/12/06 12:36:03;;;;;;;7.78;5.57;;;19.40;49.40;;;;;;2254981;63;20554;-66
2021/12/06 12:38:33;;;;;;;11.48;6.18;;;19.40;49.40;;;;;;2255068;63;20287;-65
2021/12/06 12:41:08;;;;;;;8.68;6.28;;;19.40;49.40;;;;;;2254957;63;20188;-67
2021/12/06 12:43:51;;;;;;;10.60;6.20;;;19.30;49.40;;;;;;2254893;63;20647;-66
2021/12/06 12:46:31;;;;;;;9.35;6.15;;;19.30;49.30;;;;;;2255074;63;20175;-65
2021/12/06 12:48:59;;;;;;;10.98;6.65;;;19.30;49.30;;;;;;2255028;63;20550;-66
2021/12/06 12:51:37;;;;;;;10.35;6.82;;;19.30;49.20;;;;;;2254976;63;20604;-66
2021/12/06 12:54:11;;;;;;;10.55;6.97;;;19.30;49.10;;;;;;2254966;63;20181;-66
2021/12/06 12:56:44;;;;;;;11.48;7.30;;;19.30;49.00;;;;;;2255029;63;20720;-67
2021/12/06 12:59:30;;;;;;;10.75;7.00;;;19.30;49.00;;;;;;2254990;63;20648;-66
2021/12/06 13:02:24;;;;;;;10.75;6.95;;;19.30;48.80;;;;;;2254985;63;20223;-67
2021/12/06 13:04:59;;;;;;;13.95;7.57;;;19.30;48.60;;;;;;2254887;63;20165;-66
2021/12/06 13:07:30;;;;;;;10.43;7.15;;;19.30;48.50;;;;;;2254964;63;20213;-67
2021/12/06 13:09:58;;;;;;;10.25;7.38;;;19.30;48.50;;;;;;2254873;63;20195;-66